Ayrshire, United Kingdom
Current Conditions -  °F | °C
As of 11:20 AM on Friday 28 Nov 2014 (Local Time) from EGPK Reporting Station
Scattered Clouds Scattered Clouds  
Wind Chill: 48°   Ceiling: Unl
Heat Index: 48°   Visibility: 6mi
Dew Point: 43°   Wind: 0mph
Humidity: 82%   Direction: NA
Pressure: 29.77"   Gusts: NA
Location:  55.39°N, 4.46°W
Report Text: EGPK 281120Z 00000KT 9999 FEW015 SCT035 09/06 Q1008
Loading
Personal Weather Stations






























Interactive Weather Map New forecast layout! Learn more

10-Day Weather Forecast

Advertisements
Track Severe Weather on mobile